Time;durP1;ratioP1;P1;durP2;ratioP2;P2;SDS_P1;SDS_P2;PMS_P1;PMS_P2;Temp;Humidity;BMP_temperature;BMP_pressure;BME280_temperature;BME280_humidity;BME280_pressure;Samples;Min_cycle;Max_cycle;Signal;HPM_P1;HPM_P2
2021/06/29 00:02:16;;;;;;;8.27;4.60;;;;;;;22.01;71.17;99914.38;6222507;28;20092;-63
2021/06/29 00:05:17;;;;;;;8.27;4.43;;;;;;;21.88;72.39;99914.91;6223261;28;20409;-63
2021/06/29 00:08:18;;;;;;;6.37;4.40;;;;;;;21.82;72.67;99918.22;6222333;28;20042;-62
2021/06/29 00:11:19;;;;;;;8.13;4.30;;;;;;;21.72;73.32;99915.78;6223274;28;20048;-62
2021/06/29 00:14:19;;;;;;;8.23;4.97;;;;;;;21.64;74.02;99926.41;6222046;28;20049;-63
2021/06/29 00:17:20;;;;;;;6.37;4.37;;;;;;;21.71;74.17;99923.91;6222040;28;20173;-63
2021/06/29 00:20:21;;;;;;;8.33;4.63;;;;;;;21.61;74.97;99921.44;6205837;28;20046;-63
2021/06/29 00:23:22;;;;;;;7.73;5.30;;;;;;;21.63;74.34;99915.97;6221842;28;20358;-62
2021/06/29 00:26:23;;;;;;;4.83;4.37;;;;;;;21.58;74.65;99910.31;6221742;28;20038;-63
2021/06/29 00:29:24;;;;;;;7.17;5.00;;;;;;;21.52;75.54;99919.81;6222970;28;20535;-63
2021/06/29 00:32:24;;;;;;;11.10;4.60;;;;;;;21.48;75.28;99914.00;6222787;28;20056;-63
2021/06/29 00:35:25;;;;;;;8.63;4.93;;;;;;;21.48;75.33;99911.34;6223146;28;20370;-63
2021/06/29 00:38:26;;;;;;;11.17;4.60;;;;;;;21.52;75.34;99911.84;6221768;28;20119;-63
2021/06/29 00:41:28;;;;;;;6.25;4.57;;;;;;;21.55;74.86;99914.16;6222596;28;20104;-63
2021/06/29 00:44:28;;;;;;;5.30;4.47;;;;;;;21.60;74.82;99898.56;6222459;28;20444;-62
2021/06/29 00:47:29;;;;;;;6.73;4.83;;;;;;;21.58;75.02;99905.00;6221401;28;20097;-63
2021/06/29 00:50:30;;;;;;;7.40;5.23;;;;;;;21.60;74.78;99893.25;6222503;28;20119;-63
2021/06/29 00:53:30;;;;;;;7.20;5.37;;;;;;;21.67;74.48;99893.38;6222278;28;20042;-63
2021/06/29 00:56:32;;;;;;;8.23;5.40;;;;;;;21.70;74.48;99896.53;6221394;28;20509;-63
2021/06/29 00:59:33;;;;;;;5.78;4.88;;;;;;;21.71;74.56;99884.09;6220832;28;20508;-62
2021/06/29 01:02:34;;;;;;;9.32;5.15;;;;;;;21.75;74.51;99879.28;6222178;28;20037;-63
2021/06/29 01:05:35;;;;;;;8.83;4.60;;;;;;;21.76;74.55;99878.25;6222109;28;20084;-63
2021/06/29 01:08:36;;;;;;;6.23;4.07;;;;;;;21.75;74.49;99876.63;6220526;28;20060;-62
2021/06/29 01:11:36;;;;;;;7.28;4.53;;;;;;;21.74;74.51;99875.75;6220747;28;20556;-63
2021/06/29 01:14:37;;;;;;;6.57;4.57;;;;;;;21.73;74.55;99877.59;6221945;28;20133;-63
2021/06/29 01:17:38;;;;;;;11.77;4.50;;;;;;;21.72;74.61;99873.31;6222079;28;20250;-63
2021/06/29 01:20:39;;;;;;;6.73;4.70;;;;;;;21.66;75.29;99870.47;6221968;28;20084;-63
2021/06/29 01:23:42;;;;;;;6.63;4.78;;;;;;;21.61;75.48;99881.63;6220677;28;20048;-63
2021/06/29 01:26:58;;;;;;;5.10;4.32;;;;;;;21.56;77.26;99878.66;6220577;28;20370;-63
2021/06/29 01:33:00;;;;;;;6.93;4.83;;;;;;;21.37;79.15;99876.31;6221797;28;20049;-64
2021/06/29 01:36:00;;;;;;;6.10;5.00;;;;;;;21.31;79.55;99876.00;6204300;28;20053;-63
2021/06/29 01:39:04;;;;;;;7.70;4.77;;;;;;;21.34;79.39;99867.69;6220553;28;20074;-63
2021/06/29 01:42:06;;;;;;;6.15;4.78;;;;;;;21.33;79.21;99866.06;6221812;28;20488;-63
2021/06/29 01:45:07;;;;;;;8.40;4.68;;;;;;;21.31;80.03;99872.50;6221609;28;20093;-63
2021/06/29 01:48:18;;;;;;;8.80;5.38;;;;;;;21.27;80.47;99872.03;6220471;28;20409;-63
2021/06/29 01:51:19;;;;;;;6.13;4.80;;;;;;;21.23;81.09;99872.50;6221677;28;20130;-63
2021/06/29 01:54:21;;;;;;;;;;;;;;;21.16;81.32;99875.00;6204559;28;20050;-63
2021/06/29 01:57:22;;;;;;;6.43;4.82;;;;;;;21.16;80.80;99868.88;6221915;28;20332;-63
2021/06/29 02:00:22;;;;;;;5.07;4.47;;;;;;;21.13;80.28;99878.00;6221370;28;20065;-63
2021/06/29 02:03:23;;;;;;;5.93;4.50;;;;;;;21.06;81.08;99874.34;6221561;28;20073;-62
2021/06/29 02:06:24;;;;;;;5.67;4.57;;;;;;;21.07;81.31;99866.22;6221478;28;20125;-63
2021/06/29 02:09:25;;;;;;;9.27;4.93;;;;;;;21.05;82.45;99867.41;6221490;28;20073;-62
2021/06/29 02:12:26;;;;;;;5.30;4.60;;;;;;;21.08;82.12;99875.00;6221375;28;20038;-62
2021/06/29 02:15:27;;;;;;;5.27;4.33;;;;;;;21.07;82.35;99868.88;6220250;28;20477;-63
2021/06/29 02:18:28;;;;;;;5.40;4.73;;;;;;;21.06;82.97;99867.19;6221445;28;20042;-63
2021/06/29 02:21:29;;;;;;;8.30;4.85;;;;;;;21.01;83.21;99882.81;6223758;28;20045;-63
2021/06/29 02:24:30;;;;;;;7.53;4.67;;;;;;;21.01;82.19;99869.53;6234750;28;20053;-62
2021/06/29 02:27:31;;;;;;;8.33;4.83;;;;;;;20.97;82.85;99876.16;6248505;28;20041;-63
2021/06/29 02:30:32;;;;;;;9.73;4.37;;;;;;;20.94;82.28;99881.81;6226172;28;20050;-63
2021/06/29 02:33:33;;;;;;;6.20;4.70;;;;;;;20.94;82.45;99884.47;6243666;28;20044;-63
2021/06/29 02:36:33;;;;;;;5.47;4.40;;;;;;;20.86;82.73;99873.84;6224719;28;20038;-63
2021/06/29 02:39:34;;;;;;;6.43;4.73;;;;;;;20.86;83.44;99881.81;6238243;28;20049;-63
2021/06/29 02:42:35;;;;;;;5.90;4.57;;;;;;;20.82;84.97;99875.19;6248779;28;20065;-63
2021/06/29 02:45:36;;;;;;;11.77;6.77;;;;;;;20.79;85.11;99883.44;6248572;28;20183;-62
2021/06/29 02:48:37;;;;;;;6.30;4.70;;;;;;;20.71;86.05;99881.59;6238900;28;20103;-63
2021/06/29 02:51:37;;;;;;;6.00;4.70;;;;;;;20.67;86.08;99875.81;6225176;28;20038;-63
2021/06/29 02:54:38;;;;;;;8.43;5.40;;;;;;;20.59;87.09;99886.41;6223918;28;20129;-63
2021/06/29 02:57:40;;;;;;;8.97;5.50;;;;;;;20.60;87.13;99880.09;6225219;28;20058;-63
2021/06/29 03:00:41;;;;;;;6.78;4.95;;;;;;;20.58;87.80;99873.28;6240092;28;20130;-63
2021/06/29 03:03:42;;;;;;;6.80;5.60;;;;;;;20.50;88.41;99885.50;6224865;28;20477;-63
2021/06/29 03:06:43;;;;;;;6.07;5.13;;;;;;;20.40;88.09;99881.34;6223479;28;20073;-63
2021/06/29 03:09:43;;;;;;;10.87;5.47;;;;;;;20.34;88.86;99888.09;6224834;28;20393;-62
2021/06/29 03:12:44;;;;;;;7.90;5.13;;;;;;;20.35;89.26;99899.56;6224538;28;20144;-63
2021/06/29 03:15:45;;;;;;;7.10;5.53;;;;;;;20.26;89.93;99886.28;6224683;28;20404;-63
2021/06/29 03:18:46;;;;;;;11.07;5.70;;;;;;;20.30;89.80;99884.13;6224576;28;20107;-63
2021/06/29 03:21:46;;;;;;;10.63;5.60;;;;;;;20.29;89.68;99883.28;6224922;28;20049;-63
2021/06/29 03:24:49;;;;;;;10.83;5.70;;;;;;;20.39;88.97;99883.16;6224369;28;20124;-63
2021/06/29 03:27:49;;;;;;;7.85;5.65;;;;;;;20.41;89.51;99881.19;6224365;28;20042;-63
2021/06/29 03:30:50;;;;;;;10.33;6.13;;;;;;;20.45;89.15;99877.22;6224320;28;20046;-63
2021/06/29 03:33:51;;;;;;;7.83;5.70;;;;;;;20.45;88.62;99882.53;6223491;28;20037;-63
2021/06/29 03:36:52;;;;;;;11.70;5.43;;;;;;;20.39;88.85;99890.31;6224363;28;20053;-63
2021/06/29 03:39:52;;;;;;;12.03;5.40;;;;;;;20.41;89.38;99890.97;6223932;28;20083;-63
2021/06/29 03:42:53;;;;;;;6.77;5.40;;;;;;;20.44;88.83;99890.63;6222801;28;20485;-62
2021/06/29 03:45:54;;;;;;;7.93;5.17;;;;;;;20.50;88.59;99889.97;6222785;28;20052;-64
2021/06/29 03:48:55;;;;;;;14.33;7.27;;;;;;;20.52;88.28;99888.81;6222630;28;20061;-63
2021/06/29 03:51:56;;;;;;;7.67;5.60;;;;;;;20.61;87.21;99886.22;6223800;28;20048;-63
2021/06/29 03:54:57;;;;;;;7.85;5.22;;;;;;;20.67;87.05;99890.88;6223610;28;20076;-63
2021/06/29 03:57:58;;;;;;;7.03;5.57;;;;;;;20.69;86.91;99889.75;6222448;28;20284;-62
2021/06/29 04:00:59;;;;;;;5.93;4.63;;;;;;;20.77;86.22;99890.72;6223443;28;20513;-63
2021/06/29 04:04:00;;;;;;;5.57;4.67;;;;;;;20.81;85.72;99892.06;6223532;28;20066;-63
2021/06/29 04:07:06;;;;;;;6.53;5.15;;;;;;;20.85;85.56;99893.41;6223387;28;20042;-63
2021/06/29 04:10:08;;;;;;;7.40;5.40;;;;;;;20.81;86.11;99900.03;6222212;28;20100;-63
2021/06/29 04:13:09;;;;;;;;;;;;;;;20.80;86.30;99908.97;6222439;28;20042;-63
2021/06/29 04:16:10;;;;;;;8.00;4.75;;;;;;;20.89;85.13;99916.75;6222958;28;19929;-63
2021/06/29 04:19:10;;;;;;;7.00;5.63;;;;;;;20.96;84.58;99916.09;6221848;28;20046;-63
2021/06/29 04:22:11;;;;;;;7.27;5.60;;;;;;;20.97;84.18;99923.91;6223086;28;20473;-63
2021/06/29 04:25:12;;;;;;;9.73;4.43;;;;;;;21.05;83.48;99915.97;6223376;28;20042;-64
2021/06/29 04:28:13;;;;;;;7.18;5.50;;;;;;;21.18;83.44;99910.16;6221772;28;20038;-63
2021/06/29 04:31:16;;;;;;;10.30;4.60;;;;;;;21.26;82.31;99904.84;6222906;28;20048;-63
2021/06/29 04:34:17;;;;;;;6.35;4.32;;;;;;;21.29;83.88;99904.53;6205448;28;20516;-63
2021/06/29 04:37:18;;;;;;;8.37;4.80;;;;;;;21.39;82.76;99895.56;6234118;28;20049;-63
2021/06/29 04:40:19;;;;;;;5.60;4.77;;;;;;;21.44;82.19;99896.75;6225257;28;20049;-63
2021/06/29 04:43:20;;;;;;;5.43;4.27;;;;;;;21.51;82.17;99896.91;6246644;28;20076;-63
2021/06/29 04:46:21;;;;;;;6.13;4.63;;;;;;;21.57;81.97;99909.50;6242300;28;20076;-63
2021/06/29 04:49:25;;;;;;;8.83;4.43;;;;;;;21.60;82.25;99895.91;6231183;28;20169;-63
2021/06/29 04:52:26;;;;;;;5.18;4.30;;;;;;;21.71;82.93;99892.88;6221163;28;20045;-63
2021/06/29 04:55:27;;;;;;;5.63;4.53;;;;;;;21.85;81.66;99888.69;6221177;28;20103;-63
2021/06/29 04:58:28;;;;;;;6.85;4.82;;;;;;;21.91;82.07;99901.28;6221012;28;20045;-63
2021/06/29 05:01:31;;;;;;;7.57;4.33;;;;;;;21.97;81.56;99894.47;6221028;28;20068;-63
2021/06/29 05:04:32;;;;;;;10.70;4.90;;;;;;;22.08;80.65;99887.94;6222120;28;20050;-63
2021/06/29 05:07:36;;;;;;;10.27;4.60;;;;;;;22.12;80.77;99892.75;6222150;28;20049;-63
2021/06/29 05:10:37;;;;;;;9.90;4.32;;;;;;;22.24;80.04;99893.22;6220952;28;20053;-63
2021/06/29 05:13:38;;;;;;;7.05;4.07;;;;;;;22.29;78.09;99896.19;6222167;28;20436;-63
2021/06/29 05:16:39;;;;;;;7.13;4.30;;;;;;;22.36;78.23;99896.31;6232277;28;20052;-60
2021/06/29 05:19:40;;;;;;;4.70;4.20;;;;;;;22.47;78.18;99887.13;6222098;28;20069;-62
2021/06/29 05:22:41;;;;;;;8.47;4.37;;;;;;;22.53;77.86;99889.91;6222088;28;20041;-63
2021/06/29 05:25:41;;;;;;;6.53;4.00;;;;;;;22.65;77.78;99895.66;6243203;28;20037;-63
2021/06/29 05:28:43;;;;;;;4.70;3.90;;;;;;;22.87;75.05;99888.69;6245188;28;20045;-63
2021/06/29 05:31:44;;;;;;;6.37;4.03;;;;;;;22.97;73.56;99888.44;6245340;28;20052;-63
2021/06/29 05:34:45;;;;;;;;;;;;;;;23.07;72.81;99891.72;6245456;28;20411;-63
2021/06/29 05:37:46;;;;;;;5.88;3.40;;;;;;;23.22;72.69;99901.59;6235742;28;19922;-63
2021/06/29 05:40:46;;;;;;;4.70;3.80;;;;;;;23.32;74.16;99888.84;6221931;28;20125;-65
2021/06/29 05:43:47;;;;;;;4.90;3.57;;;;;;;23.45;72.08;99896.22;6237452;28;20112;-66
2021/06/29 05:46:51;;;;;;;4.60;3.77;;;;;;;23.54;72.33;99890.66;6231009;28;20038;-66
2021/06/29 05:49:52;;;;;;;8.68;4.20;;;;;;;23.65;72.69;99892.03;6224527;28;20412;-66
2021/06/29 05:52:53;;;;;;;6.03;4.03;;;;;;;23.82;72.28;99897.22;6244930;28;20092;-67
2021/06/29 05:55:54;;;;;;;5.50;4.00;;;;;;;23.92;70.37;99889.75;6223171;28;20061;-67
2021/06/29 05:58:54;;;;;;;7.93;4.53;;;;;;;23.99;70.72;99889.84;6226172;28;20054;-66
2021/06/29 06:01:55;;;;;;;4.73;4.07;;;;;;;23.96;69.10;99892.91;6230054;28;20507;-67
2021/06/29 06:04:56;;;;;;;8.80;3.87;;;;;;;24.02;68.14;99897.47;6236695;28;20097;-66
2021/06/29 06:07:57;;;;;;;9.87;3.93;;;;;;;24.06;70.27;99896.94;6225145;28;20038;-67
2021/06/29 06:10:58;;;;;;;8.63;4.23;;;;;;;24.16;67.72;99899.31;6226244;28;20046;-67
2021/06/29 06:13:58;;;;;;;4.63;3.77;;;;;;;24.31;65.76;99907.28;6224907;28;20274;-66
2021/06/29 06:16:59;;;;;;;6.70;3.50;;;;;;;24.42;67.11;99903.28;6224791;28;20050;-67
2021/06/29 06:20:00;;;;;;;12.13;4.00;;;;;;;24.52;64.05;99906.53;6226213;28;20516;-67
2021/06/29 06:23:01;;;;;;;4.17;3.63;;;;;;;24.56;65.32;99915.81;6225591;28;20492;-67
2021/06/29 06:26:02;;;;;;;7.22;3.15;;;;;;;24.71;62.63;99911.25;6209130;28;20303;-68
2021/06/29 06:29:03;;;;;;;10.20;3.40;;;;;;;24.89;58.38;99916.19;6225434;28;20049;-68
2021/06/29 06:32:04;;;;;;;4.13;3.20;;;;;;;24.97;55.80;99917.06;6226605;28;20465;-67
2021/06/29 06:35:05;;;;;;;4.70;3.25;;;;;;;25.08;53.08;99912.03;6225064;28;20058;-68
2021/06/29 06:38:06;;;;;;;;;;;;;;;25.10;56.00;99902.00;6225975;28;20338;-71
2021/06/29 06:41:10;;;;;;;9.83;3.50;;;;;;;25.27;55.61;99909.75;6224453;28;19925;-70
2021/06/29 06:44:11;;;;;;;6.75;3.40;;;;;;;25.33;53.54;99898.31;6247328;28;20072;-68
2021/06/29 06:47:12;;;;;;;5.83;3.43;;;;;;;25.48;53.75;99893.69;6249848;28;20480;-68
2021/06/29 06:50:13;;;;;;;7.68;3.33;;;;;;;25.54;54.17;99903.59;6248492;28;20054;-72
2021/06/29 06:53:14;;;;;;;5.13;3.30;;;;;;;25.54;53.62;99895.56;6248614;28;20431;-71
2021/06/29 06:56:14;;;;;;;4.93;3.40;;;;;;;25.64;51.75;99905.94;6249668;28;20046;-71
2021/06/29 06:59:15;;;;;;;5.90;3.40;;;;;;;25.72;51.13;99899.59;6247565;28;20076;-70
2021/06/29 07:02:16;;;;;;;6.95;3.60;;;;;;;25.65;51.77;99899.53;6224307;28;20054;-68
2021/06/29 07:05:17;;;;;;;6.53;3.00;;;;;;;25.66;51.51;99903.06;6226028;28;20038;-70
2021/06/29 07:08:18;;;;;;;6.38;3.22;;;;;;;25.66;51.53;99887.03;6240176;28;20095;-70
2021/06/29 07:11:19;;;;;;;6.60;3.35;;;;;;;25.64;54.62;99891.75;6226085;28;20393;-71
2021/06/29 07:14:20;;;;;;;6.18;3.30;;;;;;;25.82;53.20;99888.53;6235590;28;20041;-67
2021/06/29 07:17:21;;;;;;;7.47;3.45;;;;;;;25.88;55.57;99888.59;6218051;28;20480;-68
2021/06/29 07:20:23;;;;;;;8.93;3.47;;;;;;;26.02;54.49;99888.69;6248692;28;20049;-68
2021/06/29 07:23:24;;;;;;;5.00;3.40;;;;;;;26.17;53.16;99892.06;6250028;28;20045;-68
2021/06/29 07:26:24;;;;;;;7.65;3.50;;;;;;;26.21;51.38;99890.66;6248945;28;20069;-68
2021/06/29 07:29:25;;;;;;;7.85;3.60;;;;;;;26.23;50.99;99883.25;6249746;28;20041;-67
2021/06/29 07:32:27;;;;;;;4.07;3.42;;;;;;;26.36;52.60;99890.47;6249908;28;20476;-68
2021/06/29 07:35:28;;;;;;;;;;;;;;;26.45;50.09;99886.59;6249841;28;20049;-67
2021/06/29 07:38:29;;;;;;;7.95;3.50;;;;;;;26.47;52.42;99895.25;6249684;28;19928;-68
2021/06/29 07:41:30;;;;;;;5.68;3.72;;;;;;;26.60;52.44;99901.69;6249426;28;20037;-68
2021/06/29 07:44:30;;;;;;;7.38;3.50;;;;;;;26.58;53.58;99899.19;6248996;28;20045;-68
2021/06/29 07:47:31;;;;;;;8.02;3.05;;;;;;;26.68;50.84;99893.47;6249289;28;20067;-68
2021/06/29 07:50:32;;;;;;;3.95;2.92;;;;;;;26.84;52.22;99897.63;6249090;28;20052;-68
2021/06/29 07:53:33;;;;;;;6.65;3.65;;;;;;;26.92;49.35;99887.53;6247890;28;20045;-68
2021/06/29 07:56:37;;;;;;;8.02;3.50;;;;;;;26.96;45.55;99889.81;6247978;28;20060;-67
2021/06/29 07:59:38;;;;;;;13.63;3.60;;;;;;;26.99;47.92;99884.84;6248847;28;20060;-68
2021/06/29 08:02:39;;;;;;;9.60;3.13;;;;;;;27.11;49.08;99890.44;6231278;28;20041;-68
2021/06/29 08:05:39;;;;;;;7.10;3.15;;;;;;;27.13;50.82;99886.50;6247606;28;20396;-67
2021/06/29 08:08:41;;;;;;;8.70;3.60;;;;;;;27.24;46.68;99887.81;6247689;28;20038;-68
2021/06/29 08:11:42;;;;;;;3.83;3.40;;;;;;;27.27;46.89;99881.19;6248345;28;20060;-69
2021/06/29 08:14:42;;;;;;;4.95;3.33;;;;;;;27.33;47.75;99891.09;6222543;28;20619;-68
2021/06/29 08:17:45;;;;;;;9.48;3.53;;;;;;;27.41;48.29;99880.16;6222593;28;20049;-69
2021/06/29 08:20:46;;;;;;;7.95;3.38;;;;;;;27.50;47.14;99872.72;6206473;28;20050;-68
2021/06/29 08:23:47;;;;;;;5.60;3.10;;;;;;;27.61;49.19;99880.09;6222750;28;20053;-68
2021/06/29 08:26:48;;;;;;;10.73;3.63;;;;;;;27.72;50.97;99874.13;6223824;28;20490;-69
2021/06/29 08:29:52;;;;;;;6.25;3.47;;;;;;;27.86;44.61;99871.38;6223919;28;20038;-70
2021/06/29 08:32:54;;;;;;;9.73;3.22;;;;;;;28.01;47.17;99872.00;6224340;28;20120;-69
2021/06/29 08:35:56;;;;;;;6.05;3.53;;;;;;;28.04;49.19;99868.06;6224070;28;20485;-70
2021/06/29 08:38:57;;;;;;;7.93;2.80;;;;;;;28.21;40.65;99863.03;6223848;28;20034;-69
2021/06/29 08:41:59;;;;;;;4.15;3.00;;;;;;;28.19;41.43;99867.78;6223545;28;20508;-70
2021/06/29 08:44:59;;;;;;;;;;;;;;;28.18;43.76;99860.78;6224056;28;20068;-70
2021/06/29 08:48:02;;;;;;;8.67;3.30;;;;;;;28.20;43.05;99867.56;6223400;28;19964;-70
2021/06/29 08:51:05;;;;;;;4.15;2.35;;;;;;;28.42;40.04;99872.66;6223000;28;20045;-70
2021/06/29 08:54:06;;;;;;;5.18;2.58;;;;;;;28.53;44.09;99871.97;6223511;28;20049;-68
2021/06/29 08:57:07;;;;;;;4.32;3.10;;;;;;;28.62;42.74;99867.16;6222410;28;20073;-68
2021/06/29 09:00:11;;;;;;;7.38;3.00;;;;;;;28.71;44.73;99866.69;6223463;28;20134;-70
2021/06/29 09:03:12;;;;;;;4.35;2.95;;;;;;;28.75;40.44;99869.78;6221669;28;20116;-69
2021/06/29 09:06:13;;;;;;;6.13;2.70;;;;;;;28.79;41.78;99868.31;6205607;28;20099;-70
2021/06/29 09:09:28;;;;;;;4.20;2.85;;;;;;;28.83;40.91;99864.16;6222533;28;20089;-67
2021/06/29 09:12:51;;;;;;;8.68;3.15;;;;;;;28.98;41.82;99869.19;6221890;28;20038;-68
2021/06/29 09:15:52;;;;;;;3.42;2.88;;;;;;;29.04;43.30;99862.13;6222543;28;20072;-68
2021/06/29 09:18:52;;;;;;;7.10;2.88;;;;;;;29.19;41.38;99868.00;6221613;28;20042;-70
2021/06/29 09:21:53;;;;;;;8.82;2.65;;;;;;;28.89;41.26;99870.47;6205129;28;20053;-60
2021/06/29 09:24:54;;;;;;;4.72;2.70;;;;;;;28.43;43.05;99872.41;6220861;28;20050;-61
2021/06/29 09:27:57;;;;;;;;;;;;;;;28.02;46.43;99862.09;6222160;28;20042;-61
2021/06/29 09:31:02;;;;;;;3.88;2.72;;;;;;;27.88;43.66;99862.16;6221283;28;19925;-60
2021/06/29 09:34:07;;;;;;;5.68;2.70;;;;;;;27.65;44.38;99859.91;6220481;28;20058;-60
2021/06/29 09:37:35;;;;;;;5.75;2.72;;;;;;;27.57;45.36;99849.41;6220424;28;20381;-61
2021/06/29 09:40:36;;;;;;;7.38;3.05;;;;;;;27.76;45.57;99853.09;6221793;28;20508;-60
2021/06/29 09:43:40;;;;;;;6.07;2.70;;;;;;;27.70;43.87;99852.06;6221874;28;20121;-61
2021/06/29 09:46:41;;;;;;;14.40;2.70;;;;;;;27.59;44.63;99849.19;6221623;28;20042;-61
2021/06/29 09:49:42;;;;;;;4.63;2.97;;;;;;;27.76;44.36;99845.03;6220434;28;20121;-61
2021/06/29 09:52:44;;;;;;;4.35;2.33;;;;;;;27.84;43.39;99846.66;6221415;28;20416;-61
2021/06/29 09:55:47;;;;;;;4.28;2.75;;;;;;;27.63;42.02;99839.72;6220232;28;20129;-61
2021/06/29 09:58:54;;;;;;;8.48;2.50;;;;;;;27.76;42.20;99834.31;6221182;28;20054;-61
2021/06/29 10:02:11;;;;;;;9.20;2.80;;;;;;;27.87;43.62;99830.19;6220406;28;20052;-62
2021/06/29 10:05:24;;;;;;;6.05;2.70;;;;;;;27.92;43.92;99827.69;6221182;28;20042;-59
2021/06/29 10:08:33;;;;;;;8.18;2.53;;;;;;;28.28;42.85;99824.41;6221653;28;20074;-60
2021/06/29 10:11:37;;;;;;;7.03;2.80;;;;;;;28.29;45.80;99822.53;6221359;28;20408;-61
2021/06/29 10:14:38;;;;;;;4.18;2.72;;;;;;;28.16;44.34;99818.09;6221254;28;20042;-62
2021/06/29 10:17:39;;;;;;;;;;;;;;;28.12;46.87;99817.69;6221667;28;20038;-59
2021/06/29 10:20:51;;;;;;;5.23;3.17;;;;;;;28.08;45.02;99810.28;6221217;28;19921;-61
2021/06/29 10:24:06;;;;;;;5.95;3.10;;;;;;;28.05;47.06;99814.22;6221251;28;20283;-59
2021/06/29 10:27:09;;;;;;;7.20;2.92;;;;;;;28.11;45.13;99810.69;6221035;28;20046;-62
2021/06/29 10:30:11;;;;;;;2.92;2.15;;;;;;;28.45;39.96;99808.63;6220977;28;20111;-61
2021/06/29 10:33:14;;;;;;;8.75;2.30;;;;;;;28.77;39.72;99808.63;6219947;28;20076;-62
2021/06/29 10:36:16;;;;;;;6.07;2.20;;;;;;;28.65;40.07;99808.50;6220934;28;20074;-61
2021/06/29 10:39:21;;;;;;;3.45;2.40;;;;;;;28.61;40.20;99812.69;6221066;28;20105;-62
2021/06/29 10:42:22;;;;;;;2.75;2.30;;;;;;;28.73;38.95;99799.38;6223312;28;20140;-62
2021/06/29 10:45:23;;;;;;;5.38;2.35;;;;;;;28.94;41.88;99804.34;6226138;28;20485;-60
2021/06/29 10:48:27;;;;;;;2.28;1.92;;;;;;;29.04;35.51;99795.00;6226042;28;20056;-61
2021/06/29 10:51:38;;;;;;;6.97;2.10;;;;;;;29.10;35.40;99791.41;6225902;28;20396;-64
2021/06/29 10:54:43;;;;;;;3.25;1.90;;;;;;;29.19;36.55;99783.91;6225520;28;20073;-64
2021/06/29 10:57:49;;;;;;;5.32;2.20;;;;;;;29.31;37.22;99790.19;6225249;28;20034;-64
2021/06/29 11:00:50;;;;;;;5.10;2.30;;;;;;;29.44;38.40;99790.03;6225266;28;20108;-64
2021/06/29 11:03:53;;;;;;;3.88;2.20;;;;;;;29.29;37.67;99787.72;6223741;28;20054;-64
2021/06/29 11:06:53;;;;;;;5.72;2.13;;;;;;;29.37;38.58;99783.94;6224775;28;20046;-64
2021/06/29 11:09:58;;;;;;;4.97;2.08;;;;;;;29.54;35.98;99781.47;6223455;28;20053;-64
2021/06/29 11:13:00;;;;;;;5.60;2.00;;;;;;;29.42;39.23;99778.69;6224937;28;20045;-63
2021/06/29 11:16:01;;;;;;;7.65;2.25;;;;;;;29.48;36.67;99775.09;6224979;28;20385;-64
2021/06/29 11:19:02;;;;;;;4.38;2.30;;;;;;;29.64;39.46;99776.38;6224961;28;20049;-63
2021/06/29 11:22:03;;;;;;;4.55;2.40;;;;;;;29.65;35.93;99772.66;6225100;28;20420;-64
2021/06/29 11:25:05;;;;;;;7.40;2.22;;;;;;;29.72;37.57;99776.09;6240728;28;20053;-64
2021/06/29 11:28:26;;;;;;;4.93;2.40;;;;;;;29.76;37.68;99765.72;6249338;28;20052;-63
2021/06/29 11:31:32;;;;;;;8.18;2.25;;;;;;;29.96;34.49;99760.09;6249549;28;20577;-64
2021/06/29 11:34:33;;;;;;;6.55;2.45;;;;;;;30.04;35.66;99761.63;6248129;28;20041;-64
2021/06/29 11:38:03;;;;;;;5.93;2.35;;;;;;;30.09;36.26;99756.38;6248715;28;20037;-63
2021/06/29 11:41:30;;;;;;;4.63;2.38;;;;;;;29.99;36.55;99754.25;6248679;28;20049;-64
2021/06/29 11:44:31;;;;;;;4.90;2.45;;;;;;;30.10;35.58;99748.09;6248238;28;20072;-64
2021/06/29 11:47:38;;;;;;;;;;;;;;;30.25;36.25;99744.97;6248859;28;20037;-64
2021/06/29 11:50:42;;;;;;;2.92;2.20;;;;;;;30.37;35.59;99741.50;6246513;28;20004;-65
2021/06/29 11:53:43;;;;;;;4.88;2.40;;;;;;;30.71;35.28;99740.72;6247055;28;20455;-64
2021/06/29 11:56:44;;;;;;;2.70;2.03;;;;;;;30.79;35.60;99719.91;6246473;28;20041;-64
2021/06/29 11:59:45;;;;;;;;;;;;;;;30.90;35.40;99717.22;6248427;28;20135;-64
2021/06/29 12:02:48;;;;;;;5.47;2.17;;;;;;;30.85;36.77;99716.28;6246758;28;19925;-64
2021/06/29 12:05:51;;;;;;;7.78;2.50;;;;;;;31.18;35.04;99715.69;6247731;28;20045;-64
2021/06/29 12:08:58;;;;;;;;;;;;;;;31.00;33.52;99708.56;6247063;28;20044;-64
2021/06/29 12:12:23;;;;;;;2.67;2.22;;;;;;;31.02;35.90;99703.75;6246552;28;19927;-64
2021/06/29 12:15:27;;;;;;;2.85;2.53;;;;;;;31.18;34.26;99704.91;6247783;28;20045;-65
2021/06/29 12:18:29;;;;;;;10.10;2.60;;;;;;;31.29;33.49;99703.22;6247594;28;20041;-65
2021/06/29 12:21:29;;;;;;;3.83;2.00;;;;;;;31.32;33.14;99689.28;6247427;28;20044;-64
2021/06/29 12:24:30;;;;;;;4.47;2.20;;;;;;;31.24;33.75;99695.88;6247516;28;20120;-65
2021/06/29 12:27:31;;;;;;;;;;;;;;;31.08;33.79;99692.03;6246631;28;20049;-64
2021/06/29 12:30:35;;;;;;;2.40;2.17;;;;;;;30.93;35.86;99689.81;6246203;28;19924;-64
2021/06/29 12:33:40;;;;;;;2.35;2.15;;;;;;;30.90;36.06;99689.47;6247317;28;20278;-64
2021/06/29 12:36:41;;;;;;;7.25;2.58;;;;;;;30.97;35.96;99686.66;6247338;28;20052;-64
2021/06/29 12:39:42;;;;;;;;;;;;;;;31.17;33.82;99679.00;6247495;28;20400;-64
2021/06/29 12:42:42;;;;;;;8.07;2.47;;;;;;;31.38;33.99;99672.16;6245993;28;20401;-64
2021/06/29 12:45:43;;;;;;;;;;;;;;;31.10;37.32;99671.06;6246300;28;20045;-64
2021/06/29 12:49:14;;;;;;;5.53;2.10;;;;;;;31.24;34.41;99666.22;6246916;28;19931;-63
2021/06/29 12:52:14;;;;;;;6.03;2.38;;;;;;;31.14;34.32;99663.31;6246883;28;20053;-64
2021/06/29 12:55:15;;;;;;;;;;;;;;;31.27;34.93;99663.03;6247412;28;20442;-63
2021/06/29 12:58:17;;;;;;;5.37;2.60;;;;;;;31.53;34.77;99653.59;6246790;28;19921;-63
2021/06/29 13:01:19;;;;;;;4.15;2.30;;;;;;;31.37;33.96;99654.34;6246386;28;20076;-63
2021/06/29 13:04:23;;;;;;;6.95;2.25;;;;;;;31.39;35.16;99646.03;6245067;28;20463;-63
2021/06/29 13:07:24;;;;;;;5.40;2.20;;;;;;;31.47;33.18;99643.78;6245800;28;20454;-66
2021/06/29 13:10:28;;;;;;;3.08;2.00;;;;;;;31.47;34.16;99646.47;6246011;28;20038;-62
2021/06/29 13:13:28;;;;;;;3.67;2.20;;;;;;;31.57;33.67;99637.78;6245843;28;20069;-63
2021/06/29 13:16:29;;;;;;;;;;;;;;;31.48;34.71;99628.41;6246318;28;20051;-63
2021/06/29 13:19:32;;;;;;;4.70;2.00;;;;;;;31.31;34.85;99617.56;6245791;28;20036;-64
2021/06/29 13:22:48;;;;;;;6.40;2.15;;;;;;;31.39;34.05;99627.16;6245817;28;20095;-60
2021/06/29 13:25:49;;;;;;;2.65;2.10;;;;;;;31.32;34.49;99619.22;6244683;28;20530;-63
2021/06/29 13:28:50;;;;;;;;;;;;;;;31.17;34.00;99611.63;6245252;28;20041;-61
2021/06/29 13:31:51;;;;;;;18.63;2.20;;;;;;;31.19;33.07;99603.31;6228244;28;19953;-66
2021/06/29 13:35:07;;;;;;;6.75;2.03;;;;;;;30.95;34.56;99600.72;6245854;28;20285;-64
2021/06/29 13:38:13;;;;;;;4.05;2.03;;;;;;;31.09;32.16;99596.69;6244938;28;20038;-66
2021/06/29 13:41:14;;;;;;;2.33;1.80;;;;;;;31.07;35.35;99596.09;6246177;28;20045;-68
2021/06/29 13:44:15;;;;;;;;;;;;;;;30.95;33.61;99594.47;6245340;28;20053;-66
2021/06/29 13:47:16;;;;;;;2.40;2.17;;;;;;;30.98;33.31;99592.13;6245924;28;19967;-63
2021/06/29 13:50:17;;;;;;;;;;;;;;;31.13;33.30;99591.63;6245393;28;20042;-64
2021/06/29 13:53:32;;;;;;;6.00;1.70;;;;;;;31.23;32.97;99575.63;6245908;28;19921;-63
2021/06/29 13:56:35;;;;;;;7.35;2.10;;;;;;;31.17;31.44;99573.91;6245937;28;20069;-64
2021/06/29 13:59:38;;;;;;;1.83;1.58;;;;;;;31.06;30.80;99569.41;6245716;28;20053;-64
2021/06/29 14:02:39;;;;;;;4.45;1.80;;;;;;;31.14;31.79;99569.03;6245923;28;20042;-63
2021/06/29 14:05:41;;;;;;;;;;;;;;;31.17;29.75;99556.94;6245024;28;20511;-65
2021/06/29 14:08:44;;;;;;;;;;;;;;;31.20;30.47;99551.06;6246263;28;19967;-66
2021/06/29 14:11:45;;;;;;;4.22;2.00;;;;;;;31.10;31.97;99549.81;6245529;28;19963;-65
2021/06/29 14:14:46;;;;;;;;;;;;;;;31.19;31.56;99542.16;6245881;28;20033;-65
2021/06/29 14:17:47;;;;;;;7.88;1.67;;;;;;;31.26;29.83;99539.34;6248352;28;19921;-66
2021/06/29 14:20:48;;;;;;;;;;;;;;;31.16;30.18;99533.75;6249337;28;20503;-68
2021/06/29 14:23:51;;;;;;;5.28;1.58;;;;;;;31.20;30.76;99522.25;6250351;28;19925;-65
2021/06/29 14:26:52;;;;;;;4.18;1.70;;;;;;;31.26;31.76;99515.09;6249766;28;20072;-66
2021/06/29 14:29:52;;;;;;;;;;;;;;;31.20;29.16;99518.75;6250475;28;20045;-66